sensor_id;sensor_type;location;lat;lon;timestamp;pressure;altitude;pressure_sealevel;temperature;humidity
82953;BME280;74888;40.196;44.560;2024-01-07T00:02:06;88043.88;;;4.42;44.48
82953;BME280;74888;40.196;44.560;2024-01-07T00:04:33;88039.66;;;4.36;45.12
82953;BME280;74888;40.196;44.560;2024-01-07T00:07:00;88037.63;;;4.31;44.71
82953;BME280;74888;40.196;44.560;2024-01-07T00:09:26;88032.06;;;4.11;45.41
82953;BME280;74888;40.196;44.560;2024-01-07T00:11:53;88034.66;;;4.11;45.22
82953;BME280;74888;40.196;44.560;2024-01-07T00:14:21;88036.94;;;4.09;44.97
82953;BME280;74888;40.196;44.560;2024-01-07T00:16:46;88029.63;;;4.16;45.13
82953;BME280;74888;40.196;44.560;2024-01-07T00:19:12;88026.75;;;4.14;45.51
82953;BME280;74888;40.196;44.560;2024-01-07T00:21:37;88028.00;;;4.10;45.42
82953;BME280;74888;40.196;44.560;2024-01-07T00:24:03;88037.84;;;4.15;44.91
82953;BME280;74888;40.196;44.560;2024-01-07T00:28:57;88029.72;;;4.34;44.61
82953;BME280;74888;40.196;44.560;2024-01-07T00:31:23;88039.59;;;4.18;45.64
82953;BME280;74888;40.196;44.560;2024-01-07T00:33:50;88030.78;;;4.15;44.77
82953;BME280;74888;40.196;44.560;2024-01-07T00:36:15;88028.34;;;4.21;44.77
82953;BME280;74888;40.196;44.560;2024-01-07T00:38:41;88029.22;;;4.27;44.52
82953;BME280;74888;40.196;44.560;2024-01-07T00:41:07;88023.75;;;4.25;44.29
82953;BME280;74888;40.196;44.560;2024-01-07T00:43:34;88019.81;;;4.20;44.26
82953;BME280;74888;40.196;44.560;2024-01-07T00:46:02;88010.59;;;4.19;44.55
82953;BME280;74888;40.196;44.560;2024-01-07T00:48:28;88012.41;;;4.10;43.83
82953;BME280;74888;40.196;44.560;2024-01-07T00:50:54;88012.97;;;4.05;44.11
82953;BME280;74888;40.196;44.560;2024-01-07T00:53:20;88012.97;;;4.05;44.16
82953;BME280;74888;40.196;44.560;2024-01-07T00:55:47;88007.34;;;3.97;44.17
82953;BME280;74888;40.196;44.560;2024-01-07T00:58:12;88009.06;;;4.00;44.50
82953;BME280;74888;40.196;44.560;2024-01-07T01:00:39;88006.91;;;3.99;44.21
82953;BME280;74888;40.196;44.560;2024-01-07T01:03:05;88005.16;;;3.96;44.54
82953;BME280;74888;40.196;44.560;2024-01-07T01:05:30;87998.22;;;3.93;44.25
82953;BME280;74888;40.196;44.560;2024-01-07T01:07:56;87998.94;;;3.93;44.77
82953;BME280;74888;40.196;44.560;2024-01-07T01:10:23;87997.63;;;3.89;45.01
82953;BME280;74888;40.196;44.560;2024-01-07T01:12:50;87999.34;;;3.83;44.33
82953;BME280;74888;40.196;44.560;2024-01-07T01:15:19;87992.09;;;3.78;44.38
82953;BME280;74888;40.196;44.560;2024-01-07T01:17:47;87990.22;;;3.78;44.41
82953;BME280;74888;40.196;44.560;2024-01-07T01:20:15;87992.38;;;3.79;44.85
82953;BME280;74888;40.196;44.560;2024-01-07T01:22:42;87990.09;;;3.82;44.88
82953;BME280;74888;40.196;44.560;2024-01-07T01:25:08;87997.28;;;3.78;44.99
82953;BME280;74888;40.196;44.560;2024-01-07T01:27:36;87992.09;;;3.78;44.78
82953;BME280;74888;40.196;44.560;2024-01-07T01:30:02;87988.22;;;3.82;44.95
82953;BME280;74888;40.196;44.560;2024-01-07T01:32:28;87985.81;;;3.88;44.33
82953;BME280;74888;40.196;44.560;2024-01-07T01:34:55;87990.38;;;3.84;44.46
82953;BME280;74888;40.196;44.560;2024-01-07T01:37:21;87991.25;;;3.81;44.42
82953;BME280;74888;40.196;44.560;2024-01-07T01:39:47;87996.16;;;3.57;45.98
82953;BME280;74888;40.196;44.560;2024-01-07T01:42:17;87993.84;;;3.28;46.91
82953;BME280;74888;40.196;44.560;2024-01-07T01:44:42;87994.19;;;3.18;47.36
82953;BME280;74888;40.196;44.560;2024-01-07T01:47:09;87990.28;;;3.35;46.75
82953;BME280;74888;40.196;44.560;2024-01-07T01:49:35;87982.88;;;3.55;46.57
82953;BME280;74888;40.196;44.560;2024-01-07T01:52:04;87985.94;;;3.62;46.76
82953;BME280;74888;40.196;44.560;2024-01-07T01:54:30;87990.31;;;3.65;46.01
82953;BME280;74888;40.196;44.560;2024-01-07T01:56:57;87983.34;;;3.62;46.23
82953;BME280;74888;40.196;44.560;2024-01-07T01:59:23;87981.09;;;3.21;47.54
82953;BME280;74888;40.196;44.560;2024-01-07T02:01:49;87977.97;;;3.26;46.98
82953;BME280;74888;40.196;44.560;2024-01-07T02:04:15;87972.97;;;3.32;46.87
82953;BME280;74888;40.196;44.560;2024-01-07T02:06:42;87973.91;;;3.25;47.65
82953;BME280;74888;40.196;44.560;2024-01-07T02:09:08;87981.69;;;3.25;47.75
82953;BME280;74888;40.196;44.560;2024-01-07T02:11:34;87993.09;;;3.28;47.39
82953;BME280;74888;40.196;44.560;2024-01-07T02:14:00;87983.75;;;3.09;46.50
82953;BME280;74888;40.196;44.560;2024-01-07T02:16:25;87989.31;;;3.20;46.21
82953;BME280;74888;40.196;44.560;2024-01-07T02:18:53;87986.75;;;3.07;46.91
82953;BME280;74888;40.196;44.560;2024-01-07T02:21:19;87987.50;;;3.08;46.76
82953;BME280;74888;40.196;44.560;2024-01-07T02:23:45;87988.44;;;3.01;47.21
82953;BME280;74888;40.196;44.560;2024-01-07T02:26:11;87991.06;;;2.89;47.70
82953;BME280;74888;40.196;44.560;2024-01-07T02:28:36;87996.53;;;3.03;46.75
82953;BME280;74888;40.196;44.560;2024-01-07T02:31:02;87999.56;;;3.23;46.85
82953;BME280;74888;40.196;44.560;2024-01-07T02:33:28;87998.91;;;3.32;45.92
82953;BME280;74888;40.196;44.560;2024-01-07T02:35:54;87998.09;;;3.22;46.38
82953;BME280;74888;40.196;44.560;2024-01-07T02:38:21;87996.44;;;2.73;47.37
82953;BME280;74888;40.196;44.560;2024-01-07T02:40:46;87988.16;;;2.65;47.15
82953;BME280;74888;40.196;44.560;2024-01-07T02:43:12;87997.13;;;2.73;47.21
82953;BME280;74888;40.196;44.560;2024-01-07T02:45:38;87984.88;;;2.86;47.30
82953;BME280;74888;40.196;44.560;2024-01-07T02:48:03;87998.25;;;2.85;47.28
82953;BME280;74888;40.196;44.560;2024-01-07T02:50:29;87986.63;;;2.89;46.22
82953;BME280;74888;40.196;44.560;2024-01-07T02:52:56;87997.44;;;3.09;46.08
82953;BME280;74888;40.196;44.560;2024-01-07T02:55:25;87998.53;;;3.21;45.69
82953;BME280;74888;40.196;44.560;2024-01-07T02:57:51;87996.03;;;3.39;46.26
82953;BME280;74888;40.196;44.560;2024-01-07T03:00:17;87995.25;;;3.51;45.29
82953;BME280;74888;40.196;44.560;2024-01-07T03:02:43;87995.75;;;3.58;45.46
82953;BME280;74888;40.196;44.560;2024-01-07T03:05:10;88005.75;;;3.69;44.71
82953;BME280;74888;40.196;44.560;2024-01-07T03:07:37;87998.31;;;3.80;44.78
82953;BME280;74888;40.196;44.560;2024-01-07T03:10:04;87997.88;;;3.82;44.34
82953;BME280;74888;40.196;44.560;2024-01-07T03:12:29;88005.84;;;3.87;44.21
82953;BME280;74888;40.196;44.560;2024-01-07T03:14:55;88006.84;;;3.90;43.39
82953;BME280;74888;40.196;44.560;2024-01-07T03:17:20;88010.00;;;3.85;44.05
82953;BME280;74888;40.196;44.560;2024-01-07T03:19:53;88008.56;;;3.84;43.35
82953;BME280;74888;40.196;44.560;2024-01-07T03:22:19;88005.97;;;3.84;43.73
82953;BME280;74888;40.196;44.560;2024-01-07T03:24:44;88007.28;;;3.88;43.46
82953;BME280;74888;40.196;44.560;2024-01-07T03:27:10;88003.13;;;3.91;43.61
82953;BME280;74888;40.196;44.560;2024-01-07T03:29:37;87999.63;;;3.85;43.34
82953;BME280;74888;40.196;44.560;2024-01-07T03:32:02;88001.78;;;3.86;43.26
82953;BME280;74888;40.196;44.560;2024-01-07T03:34:29;88001.97;;;3.92;43.58
82953;BME280;74888;40.196;44.560;2024-01-07T03:36:55;88002.13;;;3.97;43.26
82953;BME280;74888;40.196;44.560;2024-01-07T03:39:21;88003.06;;;3.82;43.44
82953;BME280;74888;40.196;44.560;2024-01-07T03:41:46;88016.19;;;3.56;44.69
82953;BME280;74888;40.196;44.560;2024-01-07T03:44:12;88016.44;;;3.49;44.94
82953;BME280;74888;40.196;44.560;2024-01-07T03:46:38;88020.13;;;3.39;44.92
82953;BME280;74888;40.196;44.560;2024-01-07T03:49:05;88028.56;;;3.52;44.98
82953;BME280;74888;40.196;44.560;2024-01-07T03:51:30;88030.06;;;3.62;44.63
82953;BME280;74888;40.196;44.560;2024-01-07T03:53:56;88031.56;;;3.72;44.40
82953;BME280;74888;40.196;44.560;2024-01-07T03:56:22;88026.97;;;3.76;43.89
82953;BME280;74888;40.196;44.560;2024-01-07T03:58:47;88026.97;;;3.76;43.86
82953;BME280;74888;40.196;44.560;2024-01-07T04:01:17;88032.09;;;3.67;44.48
82953;BME280;74888;40.196;44.560;2024-01-07T04:03:44;88024.56;;;3.82;44.39
82953;BME280;74888;40.196;44.560;2024-01-07T04:06:10;88028.97;;;3.94;42.97
82953;BME280;74888;40.196;44.560;2024-01-07T04:08:38;88036.31;;;3.96;43.25
82953;BME280;74888;40.196;44.560;2024-01-07T04:11:04;88026.13;;;4.01;42.63
82953;BME280;74888;40.196;44.560;2024-01-07T04:13:30;88029.84;;;4.00;42.83
82953;BME280;74888;40.196;44.560;2024-01-07T04:15:56;88026.81;;;4.02;43.21
82953;BME280;74888;40.196;44.560;2024-01-07T04:18:22;88024.03;;;3.96;43.02
82953;BME280;74888;40.196;44.560;2024-01-07T04:20:48;88021.06;;;4.07;42.66
82953;BME280;74888;40.196;44.560;2024-01-07T04:23:13;88020.38;;;4.15;43.20
82953;BME280;74888;40.196;44.560;2024-01-07T04:25:39;88016.78;;;4.13;42.68
82953;BME280;74888;40.196;44.560;2024-01-07T04:28:06;88015.31;;;4.12;42.77
82953;BME280;74888;40.196;44.560;2024-01-07T04:30:32;88013.88;;;4.11;42.54
82953;BME280;74888;40.196;44.560;2024-01-07T04:32:59;88007.94;;;4.01;42.16
82953;BME280;74888;40.196;44.560;2024-01-07T04:35:25;88008.47;;;3.96;42.06
82953;BME280;74888;40.196;44.560;2024-01-07T04:37:52;88030.66;;;3.88;42.67
82953;BME280;74888;40.196;44.560;2024-01-07T04:40:17;88030.53;;;3.92;42.86
82953;BME280;74888;40.196;44.560;2024-01-07T04:42:43;88027.25;;;4.00;42.69
82953;BME280;74888;40.196;44.560;2024-01-07T04:45:10;88029.84;;;4.00;42.45
82953;BME280;74888;40.196;44.560;2024-01-07T04:47:35;88029.22;;;3.87;42.85
82953;BME280;74888;40.196;44.560;2024-01-07T04:50:02;88025.69;;;3.81;42.87
82953;BME280;74888;40.196;44.560;2024-01-07T04:52:28;88031.50;;;3.85;43.19
82953;BME280;74888;40.196;44.560;2024-01-07T04:54:55;88030.22;;;3.90;43.58
82953;BME280;74888;40.196;44.560;2024-01-07T04:57:22;88036.94;;;3.78;44.15
82953;BME280;74888;40.196;44.560;2024-01-07T04:59:49;88041.41;;;3.56;44.56
82953;BME280;74888;40.196;44.560;2024-01-07T05:02:15;88052.50;;;3.78;44.35
82953;BME280;74888;40.196;44.560;2024-01-07T05:04:41;88046.22;;;3.88;43.95
82953;BME280;74888;40.196;44.560;2024-01-07T05:07:07;88045.31;;;4.04;43.72
82953;BME280;74888;40.196;44.560;2024-01-07T05:09:34;88040.19;;;4.22;43.19
82953;BME280;74888;40.196;44.560;2024-01-07T05:11:59;88043.56;;;4.40;43.56
82953;BME280;74888;40.196;44.560;2024-01-07T05:14:26;88046.09;;;4.62;42.95
82953;BME280;74888;40.196;44.560;2024-01-07T05:16:53;88050.75;;;4.76;42.92
82953;BME280;74888;40.196;44.560;2024-01-07T05:19:20;88053.69;;;4.87;42.92
82953;BME280;74888;40.196;44.560;2024-01-07T05:21:47;88063.97;;;4.99;42.62
82953;BME280;74888;40.196;44.560;2024-01-07T05:24:13;88058.66;;;5.12;42.50
82953;BME280;74888;40.196;44.560;2024-01-07T05:26:40;88054.75;;;5.17;41.77
82953;BME280;74888;40.196;44.560;2024-01-07T05:29:06;88055.00;;;5.10;41.72
82953;BME280;74888;40.196;44.560;2024-01-07T05:31:32;88046.78;;;5.20;42.96
82953;BME280;74888;40.196;44.560;2024-01-07T05:33:57;88053.88;;;5.47;42.96
82953;BME280;74888;40.196;44.560;2024-01-07T05:36:23;88056.47;;;5.74;41.93
82953;BME280;74888;40.196;44.560;2024-01-07T05:38:51;88058.25;;;5.86;41.84
82953;BME280;74888;40.196;44.560;2024-01-07T05:41:18;88062.41;;;6.01;41.27
82953;BME280;74888;40.196;44.560;2024-01-07T05:43:46;88068.03;;;6.09;41.50
82953;BME280;74888;40.196;44.560;2024-01-07T05:46:12;88066.72;;;6.22;41.42
82953;BME280;74888;40.196;44.560;2024-01-07T05:48:44;88067.44;;;6.32;40.57
82953;BME280;74888;40.196;44.560;2024-01-07T05:51:13;88064.91;;;6.47;40.38
82953;BME280;74888;40.196;44.560;2024-01-07T05:53:40;88065.16;;;6.58;40.97
82953;BME280;74888;40.196;44.560;2024-01-07T05:56:06;88061.69;;;6.61;40.14
82953;BME280;74888;40.196;44.560;2024-01-07T05:58:32;88066.28;;;6.66;40.76
82953;BME280;74888;40.196;44.560;2024-01-07T06:00:58;88068.69;;;6.78;40.70
82953;BME280;74888;40.196;44.560;2024-01-07T06:03:25;88070.81;;;6.89;40.01
82953;BME280;74888;40.196;44.560;2024-01-07T06:05:50;88067.47;;;6.97;39.70
82953;BME280;74888;40.196;44.560;2024-01-07T06:08:16;88074.84;;;6.99;39.10
82953;BME280;74888;40.196;44.560;2024-01-07T06:10:43;88079.31;;;6.98;39.68
82953;BME280;74888;40.196;44.560;2024-01-07T06:13:09;88090.22;;;6.97;39.67
82953;BME280;74888;40.196;44.560;2024-01-07T06:15:34;88082.22;;;7.00;39.87
82953;BME280;74888;40.196;44.560;2024-01-07T06:18:02;88080.03;;;7.08;39.67
82953;BME280;74888;40.196;44.560;2024-01-07T06:20:28;88075.19;;;7.15;39.64
82953;BME280;74888;40.196;44.560;2024-01-07T06:22:54;88078.03;;;7.26;38.79
82953;BME280;74888;40.196;44.560;2024-01-07T06:25:19;88080.75;;;7.32;39.48
82953;BME280;74888;40.196;44.560;2024-01-07T06:27:46;88082.91;;;7.33;39.21
82953;BME280;74888;40.196;44.560;2024-01-07T06:30:12;88091.47;;;7.34;39.13
82953;BME280;74888;40.196;44.560;2024-01-07T06:32:40;88092.84;;;7.44;39.26
82953;BME280;74888;40.196;44.560;2024-01-07T06:35:05;88093.97;;;7.52;38.63
82953;BME280;74888;40.196;44.560;2024-01-07T06:37:31;88097.88;;;7.57;38.65
82953;BME280;74888;40.196;44.560;2024-01-07T06:39:58;88092.47;;;7.60;38.84
82953;BME280;74888;40.196;44.560;2024-01-07T06:42:24;88089.88;;;7.60;39.29
82953;BME280;74888;40.196;44.560;2024-01-07T06:44:50;88094.53;;;7.56;39.01
82953;BME280;74888;40.196;44.560;2024-01-07T06:47:16;88084.97;;;7.53;39.37
82953;BME280;74888;40.196;44.560;2024-01-07T06:49:43;88078.69;;;7.60;38.67
82953;BME280;74888;40.196;44.560;2024-01-07T06:52:10;88069.94;;;7.63;38.33
82953;BME280;74888;40.196;44.560;2024-01-07T06:54:36;88076.19;;;7.65;39.14
82953;BME280;74888;40.196;44.560;2024-01-07T06:57:15;88082.88;;;7.81;39.08
82953;BME280;74888;40.196;44.560;2024-01-07T06:59:40;88077.13;;;7.91;38.73
82953;BME280;74888;40.196;44.560;2024-01-07T07:02:06;88071.72;;;7.95;38.38
82953;BME280;74888;40.196;44.560;2024-01-07T07:04:32;88070.94;;;8.03;39.33
82953;BME280;74888;40.196;44.560;2024-01-07T07:06:59;88068.03;;;8.01;38.35
82953;BME280;74888;40.196;44.560;2024-01-07T07:09:25;88066.97;;;8.08;38.34
82953;BME280;74888;40.196;44.560;2024-01-07T07:11:51;88066.91;;;8.17;39.42
82953;BME280;74888;40.196;44.560;2024-01-07T07:14:17;88062.22;;;8.21;38.18
82953;BME280;74888;40.196;44.560;2024-01-07T07:16:42;88068.16;;;8.21;38.87
82953;BME280;74888;40.196;44.560;2024-01-07T07:19:08;88069.25;;;8.29;38.79
82953;BME280;74888;40.196;44.560;2024-01-07T07:21:37;88062.88;;;8.30;38.56
82953;BME280;74888;40.196;44.560;2024-01-07T07:24:04;88061.25;;;8.33;38.65
82953;BME280;74888;40.196;44.560;2024-01-07T07:26:30;88060.16;;;8.39;37.88
82953;BME280;74888;40.196;44.560;2024-01-07T07:28:56;88058.81;;;8.44;38.45
82953;BME280;74888;40.196;44.560;2024-01-07T07:31:22;88059.00;;;8.40;37.50
82953;BME280;74888;40.196;44.560;2024-01-07T07:33:48;88056.09;;;8.38;38.51
82953;BME280;74888;40.196;44.560;2024-01-07T07:36:14;88057.72;;;8.50;37.98
82953;BME280;74888;40.196;44.560;2024-01-07T07:38:40;88052.84;;;8.58;38.23
82953;BME280;74888;40.196;44.560;2024-01-07T07:41:07;88055.53;;;8.63;37.56
82953;BME280;74888;40.196;44.560;2024-01-07T07:43:34;88053.19;;;8.65;37.18
82953;BME280;74888;40.196;44.560;2024-01-07T07:46:00;88052.47;;;8.65;38.31
82953;BME280;74888;40.196;44.560;2024-01-07T07:48:28;88054.00;;;8.71;37.87
82953;BME280;74888;40.196;44.560;2024-01-07T07:50:54;88054.72;;;8.72;37.85
82953;BME280;74888;40.196;44.560;2024-01-07T07:53:20;88040.22;;;8.71;36.98
82953;BME280;74888;40.196;44.560;2024-01-07T07:55:46;88040.28;;;8.77;38.25
82953;BME280;74888;40.196;44.560;2024-01-07T07:58:11;88035.13;;;8.82;37.50
82953;BME280;74888;40.196;44.560;2024-01-07T08:00:37;88035.47;;;8.90;37.41
82953;BME280;74888;40.196;44.560;2024-01-07T08:03:04;88020.38;;;8.99;37.68
82953;BME280;74888;40.196;44.560;2024-01-07T08:05:36;88016.53;;;9.15;36.62
82953;BME280;74888;40.196;44.560;2024-01-07T08:08:03;88018.78;;;9.22;37.09
82953;BME280;74888;40.196;44.560;2024-01-07T08:10:28;88011.16;;;9.24;37.58
82953;BME280;74888;40.196;44.560;2024-01-07T08:12:57;88012.81;;;9.21;37.16
82953;BME280;74888;40.196;44.560;2024-01-07T08:15:23;88017.50;;;9.17;36.79
82953;BME280;74888;40.196;44.560;2024-01-07T08:17:48;88009.72;;;9.23;37.19
82953;BME280;74888;40.196;44.560;2024-01-07T08:20:16;88007.88;;;9.29;36.46
82953;BME280;74888;40.196;44.560;2024-01-07T08:22:43;88007.88;;;9.29;36.28
82953;BME280;74888;40.196;44.560;2024-01-07T08:25:09;88016.47;;;9.29;36.78
82953;BME280;74888;40.196;44.560;2024-01-07T08:27:34;88017.13;;;9.24;36.50
82953;BME280;74888;40.196;44.560;2024-01-07T08:30:03;88008.53;;;9.24;36.63
82953;BME280;74888;40.196;44.560;2024-01-07T08:32:29;88005.53;;;9.31;36.57
82953;BME280;74888;40.196;44.560;2024-01-07T08:34:54;88013.94;;;9.35;36.68
82953;BME280;74888;40.196;44.560;2024-01-07T08:37:20;87997.56;;;9.40;37.23
82953;BME280;74888;40.196;44.560;2024-01-07T08:39:46;88007.50;;;9.56;36.15
82953;BME280;74888;40.196;44.560;2024-01-07T08:42:11;87995.19;;;9.62;36.66
82953;BME280;74888;40.196;44.560;2024-01-07T08:44:37;87995.50;;;9.69;36.42
82953;BME280;74888;40.196;44.560;2024-01-07T08:47:05;87994.53;;;9.67;36.25
82953;BME280;74888;40.196;44.560;2024-01-07T08:49:31;87995.03;;;9.71;36.32
82953;BME280;74888;40.196;44.560;2024-01-07T08:52:01;87983.06;;;9.64;35.94
82953;BME280;74888;40.196;44.560;2024-01-07T08:54:27;87993.81;;;9.66;36.15
82953;BME280;74888;40.196;44.560;2024-01-07T08:56:53;87989.94;;;9.62;35.91
82953;BME280;74888;40.196;44.560;2024-01-07T08:59:19;87993.66;;;9.75;36.05
82953;BME280;74888;40.196;44.560;2024-01-07T09:01:45;87992.81;;;9.84;35.93
82953;BME280;74888;40.196;44.560;2024-01-07T09:04:13;87984.06;;;9.92;34.89
82953;BME280;74888;40.196;44.560;2024-01-07T09:06:39;87978.38;;;9.94;35.85
82953;BME280;74888;40.196;44.560;2024-01-07T09:09:06;87975.78;;;9.99;35.64
82953;BME280;74888;40.196;44.560;2024-01-07T09:11:33;87984.38;;;10.00;34.79
82953;BME280;74888;40.196;44.560;2024-01-07T09:13:59;87984.91;;;10.04;35.56
82953;BME280;74888;40.196;44.560;2024-01-07T09:16:25;87982.59;;;10.12;36.05
82953;BME280;74888;40.196;44.560;2024-01-07T09:18:52;87970.81;;;10.27;35.69
82953;BME280;74888;40.196;44.560;2024-01-07T09:21:18;87968.56;;;10.46;35.21
82953;BME280;74888;40.196;44.560;2024-01-07T09:23:44;87962.69;;;10.56;35.35
82953;BME280;74888;40.196;44.560;2024-01-07T09:26:12;87962.75;;;10.67;35.18
82953;BME280;74888;40.196;44.560;2024-01-07T09:28:39;87955.91;;;10.75;34.72
82953;BME280;74888;40.196;44.560;2024-01-07T09:31:05;87953.03;;;10.79;34.95
82953;BME280;74888;40.196;44.560;2024-01-07T09:33:31;87952.13;;;10.82;34.56
82953;BME280;74888;40.196;44.560;2024-01-07T09:35:57;87948.94;;;10.67;34.29
82953;BME280;74888;40.196;44.560;2024-01-07T09:38:23;87942.75;;;10.70;34.20
82953;BME280;74888;40.196;44.560;2024-01-07T09:40:51;87936.38;;;10.87;34.54
82953;BME280;74888;40.196;44.560;2024-01-07T09:43:19;87939.34;;;11.00;34.24
82953;BME280;74888;40.196;44.560;2024-01-07T09:45:50;87928.09;;;11.00;33.94
82953;BME280;74888;40.196;44.560;2024-01-07T09:48:17;87930.28;;;11.12;33.56
82953;BME280;74888;40.196;44.560;2024-01-07T09:50:43;87924.34;;;11.17;33.61
82953;BME280;74888;40.196;44.560;2024-01-07T09:53:15;87922.50;;;11.29;32.80
82953;BME280;74888;40.196;44.560;2024-01-07T09:58:16;87916.50;;;11.23;33.15
82953;BME280;74888;40.196;44.560;2024-01-07T10:00:42;87908.66;;;11.29;33.54
82953;BME280;74888;40.196;44.560;2024-01-07T10:03:07;87902.94;;;11.36;33.80
82953;BME280;74888;40.196;44.560;2024-01-07T10:05:35;87903.22;;;11.49;33.22
82953;BME280;74888;40.196;44.560;2024-01-07T10:08:02;87898.22;;;11.56;32.65
82953;BME280;74888;40.196;44.560;2024-01-07T10:10:28;87894.66;;;11.65;32.43
82953;BME280;74888;40.196;44.560;2024-01-07T10:12:54;87896.38;;;11.68;32.16
82953;BME280;74888;40.196;44.560;2024-01-07T10:15:23;87894.41;;;11.57;31.72
82953;BME280;74888;40.196;44.560;2024-01-07T10:17:48;87896.78;;;11.61;32.46
82953;BME280;74888;40.196;44.560;2024-01-07T10:20:16;87902.59;;;11.76;32.59
82953;BME280;74888;40.196;44.560;2024-01-07T10:22:46;87896.63;;;11.97;32.24
82953;BME280;74888;40.196;44.560;2024-01-07T10:25:15;87898.81;;;12.04;32.55
82953;BME280;74888;40.196;44.560;2024-01-07T10:27:41;87902.88;;;12.11;33.09
82953;BME280;74888;40.196;44.560;2024-01-07T10:30:07;87897.88;;;12.18;32.37
82953;BME280;74888;40.196;44.560;2024-01-07T10:32:35;87896.41;;;12.23;31.66
82953;BME280;74888;40.196;44.560;2024-01-07T10:35:03;87888.28;;;12.21;32.46
82953;BME280;74888;40.196;44.560;2024-01-07T10:37:30;87895.94;;;12.35;32.34
82953;BME280;74888;40.196;44.560;2024-01-07T10:40:01;87886.84;;;12.42;31.31
82953;BME280;74888;40.196;44.560;2024-01-07T10:42:31;87889.00;;;12.44;31.18
82953;BME280;74888;40.196;44.560;2024-01-07T10:45:01;87890.66;;;12.47;31.17
82953;BME280;74888;40.196;44.560;2024-01-07T10:47:30;87882.06;;;12.41;30.21
82953;BME280;74888;40.196;44.560;2024-01-07T10:50:02;87881.34;;;12.29;31.24
82953;BME280;74888;40.196;44.560;2024-01-07T10:52:28;87883.25;;;12.34;31.86
82953;BME280;74888;40.196;44.560;2024-01-07T10:55:04;87881.09;;;12.38;30.16
82953;BME280;74888;40.196;44.560;2024-01-07T10:57:43;87882.03;;;12.46;31.44
82953;BME280;74888;40.196;44.560;2024-01-07T11:00:11;87885.41;;;12.41;30.77
82953;BME280;74888;40.196;44.560;2024-01-07T11:08:05;87885.66;;;12.43;31.00
82953;BME280;74888;40.196;44.560;2024-01-07T11:10:39;87893.06;;;12.50;31.31
82953;BME280;74888;40.196;44.560;2024-01-07T11:13:07;87883.97;;;12.51;32.08
82953;BME280;74888;40.196;44.560;2024-01-07T11:18:20;87897.84;;;12.52;30.83
82953;BME280;74888;40.196;44.560;2024-01-07T11:20:47;87901.44;;;12.37;31.38
82953;BME280;74888;40.196;44.560;2024-01-07T11:23:30;87905.53;;;12.22;30.99
82953;BME280;74888;40.196;44.560;2024-01-07T11:25:57;87900.25;;;12.22;31.12
82953;BME280;74888;40.196;44.560;2024-01-07T11:31:19;87893.31;;;12.24;32.08
82953;BME280;74888;40.196;44.560;2024-01-07T11:33:49;87900.25;;;12.27;31.49
82953;BME280;74888;40.196;44.560;2024-01-07T11:36:16;87892.13;;;12.20;30.91
82953;BME280;74888;40.196;44.560;2024-01-07T11:38:45;87883.50;;;12.19;30.77
82953;BME280;74888;40.196;44.560;2024-01-07T11:41:14;87885.16;;;12.22;31.64
82953;BME280;74888;40.196;44.560;2024-01-07T11:44:12;87889.00;;;12.27;30.32
82953;BME280;74888;40.196;44.560;2024-01-07T11:46:40;87879.66;;;12.26;31.47
82953;BME280;74888;40.196;44.560;2024-01-07T11:49:09;87884.94;;;12.31;31.26
82953;BME280;74888;40.196;44.560;2024-01-07T11:51:35;87877.03;;;12.31;31.07
82953;BME280;74888;40.196;44.560;2024-01-07T11:54:03;87868.69;;;12.16;30.57
82953;BME280;74888;40.196;44.560;2024-01-07T11:56:28;87872.03;;;12.11;31.50
82953;BME280;74888;40.196;44.560;2024-01-07T11:58:54;87859.56;;;12.17;31.38
82953;BME280;74888;40.196;44.560;2024-01-07T12:01:22;87853.84;;;12.13;31.81
82953;BME280;74888;40.196;44.560;2024-01-07T12:03:47;87862.91;;;11.90;31.85
82953;BME280;74888;40.196;44.560;2024-01-07T12:06:13;87863.38;;;11.83;31.87
82953;BME280;74888;40.196;44.560;2024-01-07T12:08:45;87868.41;;;11.76;31.56
82953;BME280;74888;40.196;44.560;2024-01-07T12:11:12;87866.25;;;11.74;31.90
82953;BME280;74888;40.196;44.560;2024-01-07T12:13:39;87868.41;;;11.76;32.58
82953;BME280;74888;40.196;44.560;2024-01-07T12:16:13;87866.97;;;11.80;32.39
82953;BME280;74888;40.196;44.560;2024-01-07T12:18:39;87867.91;;;11.72;31.88
82953;BME280;74888;40.196;44.560;2024-01-07T12:21:05;87869.59;;;11.64;32.65
82953;BME280;74888;40.196;44.560;2024-01-07T12:23:36;87866.22;;;11.58;32.32
82953;BME280;74888;40.196;44.560;2024-01-07T12:26:11;87861.44;;;11.56;32.75
82953;BME280;74888;40.196;44.560;2024-01-07T12:28:38;87866.19;;;11.63;32.99
82953;BME280;74888;40.196;44.560;2024-01-07T12:31:05;87870.31;;;11.64;32.96
82953;BME280;74888;40.196;44.560;2024-01-07T12:33:30;87869.81;;;11.66;32.55
82953;BME280;74888;40.196;44.560;2024-01-07T12:36:00;87877.72;;;11.66;32.52
82953;BME280;74888;40.196;44.560;2024-01-07T12:38:28;87888.41;;;11.57;32.52
82953;BME280;74888;40.196;44.560;2024-01-07T12:40:54;87882.22;;;11.54;32.72
82953;BME280;74888;40.196;44.560;2024-01-07T12:43:19;87862.84;;;11.52;32.85
82953;BME280;74888;40.196;44.560;2024-01-07T12:45:47;87858.31;;;11.58;32.43
82953;BME280;74888;40.196;44.560;2024-01-07T12:48:16;87847.84;;;11.69;32.46
82953;BME280;74888;40.196;44.560;2024-01-07T12:50:42;87834.47;;;11.72;31.85
82953;BME280;74888;40.196;44.560;2024-01-07T12:53:09;87843.56;;;11.71;33.03
82953;BME280;74888;40.196;44.560;2024-01-07T12:55:34;87843.78;;;11.84;32.23
82953;BME280;74888;40.196;44.560;2024-01-07T12:58:00;87850.50;;;11.91;32.56
82953;BME280;74888;40.196;44.560;2024-01-07T13:00:26;87839.50;;;11.92;32.33
82953;BME280;74888;40.196;44.560;2024-01-07T13:02:54;87846.88;;;11.88;32.54
82953;BME280;74888;40.196;44.560;2024-01-07T13:05:20;87843.06;;;11.84;32.23
82953;BME280;74888;40.196;44.560;2024-01-07T13:07:46;87851.66;;;11.68;32.74
82953;BME280;74888;40.196;44.560;2024-01-07T13:10:13;87845.16;;;11.52;32.47
82953;BME280;74888;40.196;44.560;2024-01-07T13:12:41;87832.25;;;11.49;32.62